createdAt,value
2023-05-25T00:08:07.392Z,17.17
2023-05-25T00:18:10.654Z,15.47
2023-05-25T00:28:15.293Z,11.23
2023-05-25T00:38:19.416Z,16.13
2023-05-25T00:48:24.938Z,12.80
2023-05-25T00:58:31.063Z,12.33
2023-05-25T01:08:36.865Z,13.57
2023-05-25T01:18:41.886Z,13.97
2023-05-25T01:28:51.471Z,12.93
2023-05-25T01:38:54.804Z,11.13
2023-05-25T01:49:13.717Z,14.57
2023-05-25T01:59:21.071Z,11.80
2023-05-25T02:09:25.749Z,11.00
2023-05-25T02:19:29.229Z,11.13
2023-05-25T02:29:34.355Z,8.77
2023-05-25T02:39:37.601Z,10.37
2023-05-25T02:49:42.409Z,10.57
2023-05-25T02:59:45.870Z,10.07
2023-05-25T03:09:51.862Z,9.27
2023-05-25T03:19:55.329Z,8.90
2023-05-25T03:30:00.676Z,10.83
2023-05-25T03:40:04.668Z,10.37
2023-05-25T03:50:12.137Z,11.40
2023-05-25T04:00:16.876Z,13.37
2023-05-25T04:10:21.695Z,11.33
2023-05-25T04:20:25.117Z,11.53
2023-05-25T04:30:31.489Z,11.57
2023-05-25T04:40:56.228Z,12.70
2023-05-25T04:51:03.085Z,13.43
2023-05-25T05:01:08.182Z,11.77
2023-05-25T05:11:12.923Z,11.70
2023-05-25T05:21:16.367Z,11.87
2023-05-25T05:31:22.994Z,9.80
2023-05-25T05:41:27.394Z,10.68
2023-05-25T05:51:32.220Z,14.18
2023-05-25T06:01:36.621Z,11.35
2023-05-25T06:11:41.955Z,12.25
2023-05-25T06:21:46.215Z,12.90
2023-05-25T06:31:51.526Z,10.52
2023-05-25T06:41:55.555Z,15.60
2023-05-25T06:52:08.936Z,12.68
2023-05-25T07:02:12.217Z,11.10
2023-05-25T07:12:16.856Z,10.88
2023-05-25T07:22:20.325Z,10.68
2023-05-25T07:32:24.915Z,10.98
2023-05-25T07:42:34.062Z,12.75
2023-05-25T07:52:39.357Z,12.70
2023-05-25T08:02:42.769Z,12.93
2023-05-25T08:12:49.619Z,9.07
2023-05-25T08:22:54.516Z,7.68
2023-05-25T08:32:59.174Z,11.52
2023-05-25T08:43:02.604Z,12.48
2023-05-25T08:53:11.812Z,9.98
2023-05-25T09:03:17.968Z,8.30
2023-05-25T09:13:23.306Z,9.85
2023-05-25T09:23:26.819Z,11.23
2023-05-25T09:33:31.732Z,9.65
2023-05-25T09:43:44.631Z,12.18
2023-05-25T09:53:53.654Z,14.38
2023-05-25T10:04:04.183Z,10.05
2023-05-25T10:14:10.331Z,10.20
2023-05-25T10:24:21.276Z,8.13
2023-05-25T10:34:26.554Z,9.23
2023-05-25T10:44:30.149Z,11.05
2023-05-25T10:54:36.253Z,9.20
2023-05-25T11:04:39.507Z,9.60
2023-05-25T11:14:44.808Z,11.50
2023-05-25T11:24:48.072Z,12.50
2023-05-25T11:34:54.167Z,8.98
2023-05-25T11:44:58.428Z,8.43
2023-05-25T11:55:03.034Z,8.73
2023-05-25T12:05:08.458Z,9.07
2023-05-25T12:15:18.266Z,9.23
2023-05-25T12:25:24.462Z,10.77
2023-05-25T12:35:29.532Z,9.48
2023-05-25T12:45:32.811Z,13.77
2023-05-25T12:55:38.206Z,9.48
2023-05-25T13:05:41.381Z,10.13
2023-05-25T13:15:46.002Z,9.75
2023-05-25T13:25:49.177Z,10.30
2023-05-25T13:35:59.867Z,10.18
2023-05-25T13:46:03.157Z,8.75
2023-05-25T13:56:07.850Z,9.95
2023-05-25T14:06:11.076Z,10.35
2023-05-25T14:16:15.682Z,10.93
2023-05-25T14:26:18.896Z,10.07
2023-05-25T14:36:23.478Z,10.50
2023-05-25T14:46:27.125Z,10.95
2023-05-25T14:56:31.775Z,14.88
2023-05-25T15:06:36.818Z,13.75
2023-05-25T15:16:41.808Z,11.85
2023-05-25T15:26:45.173Z,11.00
2023-05-25T15:36:49.832Z,11.77
2023-05-25T15:46:53.767Z,13.93
2023-05-25T15:56:58.435Z,11.88
2023-05-25T16:07:01.615Z,12.00
2023-05-25T16:17:06.650Z,12.40
2023-05-25T16:27:09.857Z,12.40
2023-05-25T16:37:14.541Z,13.30
2023-05-25T16:47:17.853Z,12.93
2023-05-25T16:57:22.437Z,10.70
2023-05-25T17:07:25.641Z,11.80
2023-05-25T17:17:30.245Z,15.02
2023-05-25T17:27:33.463Z,12.88
2023-05-25T17:37:37.981Z,11.15
2023-05-25T17:47:42.330Z,12.50
2023-05-25T17:57:46.983Z,11.02
2023-05-25T18:07:50.128Z,14.48
2023-05-25T18:17:54.709Z,11.30
2023-05-25T18:27:57.904Z,11.20
2023-05-25T18:38:02.457Z,12.73
2023-05-25T18:48:08.232Z,13.10
2023-05-25T18:58:12.849Z,12.25
2023-05-25T19:08:16.050Z,12.00
2023-05-25T19:18:20.743Z,11.70
2023-05-25T19:28:24.007Z,13.85
2023-05-25T19:38:34.094Z,12.50
2023-05-25T19:48:43.881Z,16.00
2023-05-25T19:58:48.425Z,13.43
2023-05-25T20:08:51.581Z,14.02
2023-05-25T20:18:56.183Z,13.85
2023-05-25T20:28:59.436Z,14.20
2023-05-25T20:39:04.144Z,17.38
2023-05-25T20:49:07.260Z,14.55
2023-05-25T20:59:11.784Z,17.08
2023-05-25T21:09:15.001Z,13.88
2023-05-25T21:19:19.678Z,15.55
2023-05-25T21:29:22.782Z,13.25
2023-05-25T21:39:27.323Z,13.95
2023-05-25T21:49:30.516Z,14.07
2023-05-25T21:59:35.109Z,13.23
2023-05-25T22:09:38.274Z,14.25
2023-05-25T22:19:44.892Z,14.02
2023-05-25T22:29:49.957Z,15.23
2023-05-25T22:39:54.520Z,13.60
2023-05-25T22:49:57.699Z,15.88
2023-05-25T23:00:02.288Z,15.32
2023-05-25T23:10:06.237Z,17.00
2023-05-25T23:20:12.175Z,17.50
2023-05-25T23:30:15.480Z,15.30
2023-05-25T23:40:20.164Z,15.30
2023-05-25T23:50:23.359Z,14.60
